Time;durP1;ratioP1;P1;durP2;ratioP2;P2;SDS_P1;SDS_P2;PMS_P1;PMS_P2;Temp;Humidity;BMP_temperature;BMP_pressure;BME280_temperature;BME280_humidity;BME280_pressure;Samples;Min_cycle;Max_cycle;Signal;HPM_P1;HPM_P2
2022/11/09 00:01:34;;;;;;;2.78;1.63;;;12.70;99.90;;;;;;5042529;28;20205;-65
2022/11/09 00:04:04;;;;;;;2.45;1.83;;;12.70;99.90;;;;;;5010919;28;20204;-65
2022/11/09 00:06:32;;;;;;;7.43;1.70;;;12.80;99.90;;;;;;5031906;28;20217;-64
2022/11/09 00:09:01;;;;;;;2.65;1.67;;;12.80;99.90;;;;;;5022753;28;20209;-64
2022/11/09 00:11:28;;;;;;;3.75;1.60;;;12.80;99.90;;;;;;5043743;28;20229;-64
2022/11/09 00:13:55;;;;;;;6.10;2.08;;;12.90;99.90;;;;;;5029772;28;20240;-65
2022/11/09 00:16:22;;;;;;;3.03;1.90;;;12.90;99.90;;;;;;5045215;28;20768;-65
2022/11/09 00:18:50;;;;;;;4.32;1.55;;;12.90;99.90;;;;;;5030042;28;20662;-65
2022/11/09 00:21:20;;;;;;;1.95;1.60;;;12.90;99.90;;;;;;5019461;28;20927;-65
2022/11/09 00:23:47;;;;;;;2.10;1.90;;;12.90;99.90;;;;;;5046020;28;20403;-65
2022/11/09 00:26:15;;;;;;;2.08;1.33;;;12.90;99.90;;;;;;5027777;28;20197;-65
2022/11/09 00:28:42;;;;;;;1.83;1.45;;;12.90;99.90;;;;;;5029433;28;20208;-65
2022/11/09 00:31:11;;;;;;;3.35;1.50;;;12.90;99.90;;;;;;5031884;28;20403;-65
2022/11/09 00:33:38;;;;;;;1.98;1.65;;;12.90;99.90;;;;;;5046245;28;20225;-65
2022/11/09 00:36:07;;;;;;;2.13;1.30;;;12.90;99.90;;;;;;5015171;28;20696;-65
2022/11/09 00:38:36;;;;;;;2.35;1.77;;;12.90;99.90;;;;;;5032294;28;20637;-65
2022/11/09 00:41:03;;;;;;;4.00;1.52;;;12.90;99.90;;;;;;5017914;28;20203;-65
2022/11/09 00:43:30;;;;;;;3.30;1.77;;;12.80;99.90;;;;;;5030134;28;20200;-65
2022/11/09 00:45:57;;;;;;;2.25;1.70;;;12.80;99.90;;;;;;5035307;28;20208;-65
2022/11/09 00:48:24;;;;;;;3.53;2.10;;;12.90;99.90;;;;;;5034328;28;20206;-65
2022/11/09 00:50:53;;;;;;;3.63;1.50;;;12.90;99.90;;;;;;5016807;28;20209;-65
2022/11/09 00:53:20;;;;;;;3.95;2.13;;;12.90;99.90;;;;;;5019385;28;21425;-65
2022/11/09 00:55:55;;;;;;;2.55;1.50;;;12.90;99.90;;;;;;5041056;28;20232;-64
2022/11/09 00:58:22;;;;;;;4.35;1.83;;;12.90;99.90;;;;;;5030326;28;20225;-65
2022/11/09 01:00:49;;;;;;;2.88;1.83;;;12.90;99.90;;;;;;5028100;28;20201;-65
2022/11/09 01:03:16;;;;;;;4.10;1.92;;;12.80;99.90;;;;;;5042552;28;20202;-65
2022/11/09 01:05:43;;;;;;;5.65;1.95;;;12.80;99.90;;;;;;5015053;28;20686;-65
2022/11/09 01:08:10;;;;;;;3.78;1.50;;;12.90;99.90;;;;;;5017929;28;21207;-65
2022/11/09 01:10:40;;;;;;;1.63;1.50;;;12.90;99.90;;;;;;5046516;28;20220;-64
2022/11/09 01:13:09;;;;;;;3.60;1.73;;;12.80;99.90;;;;;;5030263;28;20279;-64
2022/11/09 01:15:40;;;;;;;4.32;1.70;;;12.90;99.90;;;;;;5030770;28;20217;-65
2022/11/09 01:18:07;;;;;;;4.90;1.60;;;12.90;99.90;;;;;;5040842;28;20229;-64
2022/11/09 01:20:34;;;;;;;4.78;1.75;;;12.90;99.90;;;;;;5015687;28;20689;-65
2022/11/09 01:23:01;;;;;;;3.13;1.88;;;12.90;99.90;;;;;;5027082;28;20201;-64
2022/11/09 01:25:27;;;;;;;2.42;1.55;;;12.90;99.90;;;;;;5045610;28;20204;-64
2022/11/09 01:27:54;;;;;;;5.20;1.77;;;12.90;99.90;;;;;;5045564;28;20197;-64
2022/11/09 01:30:22;;;;;;;2.85;1.58;;;12.90;99.90;;;;;;5019374;28;20209;-65
2022/11/09 01:32:49;;;;;;;2.00;1.63;;;12.90;99.90;;;;;;5047305;28;20220;-64
2022/11/09 01:35:16;;;;;;;4.07;1.90;;;13.00;99.90;;;;;;5028095;28;20578;-65
2022/11/09 01:37:43;;;;;;;2.80;1.83;;;13.00;99.90;;;;;;5025175;28;20229;-64
2022/11/09 01:40:11;;;;;;;2.08;1.63;;;13.10;99.90;;;;;;5047245;28;20215;-62
2022/11/09 01:42:38;;;;;;;1.70;1.30;;;13.00;99.90;;;;;;5042297;28;20203;-62
2022/11/09 01:45:28;;;;;;;5.13;1.83;;;13.00;99.90;;;;;;5032914;28;20212;-62
2022/11/09 01:48:10;;;;;;;2.80;1.77;;;13.00;99.90;;;;;;5042728;28;20208;-62
2022/11/09 01:50:41;;;;;;;2.05;1.50;;;13.00;99.90;;;;;;5016357;28;20219;-62
2022/11/09 01:53:14;;;;;;;3.60;1.40;;;13.00;99.90;;;;;;5023118;28;20212;-62
2022/11/09 01:55:42;;;;;;;2.83;1.27;;;13.00;99.90;;;;;;5048048;28;20578;-62
2022/11/09 01:58:12;;;;;;;1.98;1.70;;;12.90;99.90;;;;;;5033187;28;20225;-62
2022/11/09 02:00:44;;;;;;;5.63;1.80;;;12.90;99.90;;;;;;5033915;28;20209;-62
2022/11/09 02:03:18;;;;;;;4.10;1.65;;;13.00;99.90;;;;;;5031202;28;20210;-62
2022/11/09 02:05:46;;;;;;;4.35;1.50;;;12.90;99.90;;;;;;5047239;28;20798;-62
2022/11/09 02:08:17;;;;;;;2.60;1.73;;;13.00;99.90;;;;;;4998063;28;20214;-62
2022/11/09 02:10:50;;;;;;;1.65;1.42;;;13.00;99.90;;;;;;5044052;28;20201;-64
2022/11/09 02:13:19;;;;;;;4.13;1.80;;;13.00;99.90;;;;;;5035234;28;21042;-64
2022/11/09 02:15:49;;;;;;;3.30;1.90;;;13.00;99.90;;;;;;5034735;28;20267;-64
2022/11/09 02:18:17;;;;;;;2.22;1.70;;;13.00;99.90;;;;;;5031235;28;20228;-64
2022/11/09 02:20:50;;;;;;;4.00;1.90;;;13.00;99.90;;;;;;5048169;28;20208;-64
2022/11/09 02:23:17;;;;;;;3.50;1.83;;;13.10;99.90;;;;;;5015674;28;20811;-65
2022/11/09 02:25:46;;;;;;;6.95;1.40;;;13.10;99.90;;;;;;5036318;28;20209;-65
2022/11/09 02:28:14;;;;;;;3.08;1.77;;;13.10;99.90;;;;;;5035678;28;20204;-64
2022/11/09 02:30:42;;;;;;;3.55;1.75;;;13.20;99.90;;;;;;5023389;28;20207;-65
2022/11/09 02:33:08;;;;;;;3.17;1.77;;;13.20;99.90;;;;;;5034593;28;20232;-64
2022/11/09 02:35:35;;;;;;;2.30;1.63;;;13.20;99.90;;;;;;5044227;28;20197;-64
2022/11/09 02:38:03;;;;;;;2.72;1.38;;;13.20;99.90;;;;;;5013087;28;20232;-65
2022/11/09 02:40:36;;;;;;;4.55;1.77;;;13.20;99.90;;;;;;5033314;28;20197;-64
2022/11/09 02:43:05;;;;;;;2.58;1.73;;;13.20;99.90;;;;;;5050198;28;20204;-65
2022/11/09 02:45:31;;;;;;;3.67;1.90;;;13.20;99.90;;;;;;5038449;28;20201;-65
2022/11/09 02:47:58;;;;;;;2.75;1.60;;;13.20;99.90;;;;;;5019442;28;20575;-65
2022/11/09 02:50:25;;;;;;;3.20;1.70;;;13.20;99.90;;;;;;5046520;28;20661;-65
2022/11/09 02:52:52;;;;;;;4.43;2.00;;;13.20;99.90;;;;;;5012261;28;20219;-65
2022/11/09 02:55:20;;;;;;;3.97;2.13;;;13.20;99.90;;;;;;5034880;28;20204;-64
2022/11/09 02:57:47;;;;;;;5.03;1.70;;;13.20;99.90;;;;;;5033350;28;20263;-64
2022/11/09 03:00:14;;;;;;;3.75;1.40;;;13.30;99.90;;;;;;5049126;28;20208;-65
2022/11/09 03:02:41;;;;;;;1.73;1.40;;;13.20;99.90;;;;;;5028741;28;20229;-65
2022/11/09 03:05:08;;;;;;;4.50;1.70;;;13.20;99.90;;;;;;5037099;28;20205;-64
2022/11/09 03:07:35;;;;;;;2.30;1.45;;;13.20;99.90;;;;;;5049434;28;20201;-64
2022/11/09 03:10:02;;;;;;;2.83;1.80;;;13.30;99.90;;;;;;5004691;28;20585;-65
2022/11/09 03:12:30;;;;;;;3.53;1.67;;;13.30;99.90;;;;;;5052133;28;20200;-64
2022/11/09 03:14:58;;;;;;;4.90;1.85;;;13.30;99.90;;;;;;5032749;28;20198;-64
2022/11/09 03:17:25;;;;;;;1.40;1.30;;;13.30;99.90;;;;;;5039000;28;20228;-64
2022/11/09 03:19:52;;;;;;;3.40;1.85;;;13.30;99.90;;;;;;5029976;28;20205;-65
2022/11/09 03:22:20;;;;;;;5.47;1.75;;;13.30;99.90;;;;;;5035424;28;20296;-64
2022/11/09 03:24:47;;;;;;;2.35;1.33;;;13.30;99.90;;;;;;5007014;28;20200;-64
2022/11/09 03:27:14;;;;;;;2.15;1.52;;;13.30;99.90;;;;;;5024621;28;20205;-64
2022/11/09 03:29:42;;;;;;;3.53;1.60;;;13.30;99.90;;;;;;5034493;28;22014;-65
2022/11/09 03:32:09;;;;;;;2.85;1.60;;;13.30;99.90;;;;;;5030336;28;20232;-64
2022/11/09 03:34:36;;;;;;;4.57;1.83;;;13.30;99.90;;;;;;5032129;28;20204;-64
2022/11/09 03:37:03;;;;;;;1.67;1.40;;;13.30;99.90;;;;;;5039256;28;20595;-65
2022/11/09 03:39:29;;;;;;;3.35;1.58;;;13.20;99.90;;;;;;5020085;28;20581;-64
2022/11/09 03:41:56;;;;;;;4.90;1.67;;;13.20;99.90;;;;;;5017660;28;20213;-65
2022/11/09 03:44:23;;;;;;;7.93;2.42;;;13.20;99.90;;;;;;5047672;28;20197;-65
2022/11/09 03:46:51;;;;;;;5.47;1.95;;;13.20;99.90;;;;;;5021798;28;20197;-65
2022/11/09 03:49:18;;;;;;;3.88;1.77;;;13.20;99.90;;;;;;5023213;28;20216;-65
2022/11/09 03:51:44;;;;;;;2.28;1.60;;;13.20;99.90;;;;;;5045670;28;20204;-64
2022/11/09 03:54:11;;;;;;;2.63;1.63;;;13.20;99.90;;;;;;5042390;28;20267;-64
2022/11/09 03:56:39;;;;;;;2.78;1.90;;;13.20;99.90;;;;;;5011271;28;20201;-64
2022/11/09 03:59:06;;;;;;;3.97;2.08;;;13.20;99.90;;;;;;5031912;28;20709;-64
2022/11/09 04:01:32;;;;;;;5.25;1.60;;;13.20;99.90;;;;;;5022254;28;21056;-64
2022/11/09 04:04:02;;;;;;;4.63;2.30;;;13.20;99.90;;;;;;5029809;28;20205;-64
2022/11/09 04:06:28;;;;;;;5.05;2.10;;;13.20;99.90;;;;;;5032913;28;20261;-65
2022/11/09 04:08:55;;;;;;;3.15;1.60;;;13.10;99.90;;;;;;5047185;28;20219;-64
2022/11/09 04:11:22;;;;;;;4.90;1.50;;;13.10;99.90;;;;;;5015093;28;20212;-65
2022/11/09 04:13:49;;;;;;;2.85;1.60;;;13.20;99.90;;;;;;5036615;28;20205;-64
2022/11/09 04:16:16;;;;;;;4.65;2.08;;;13.20;99.90;;;;;;5013871;28;20367;-64
2022/11/09 04:18:42;;;;;;;2.30;1.70;;;13.20;99.90;;;;;;5032747;28;20225;-65
2022/11/09 04:21:10;;;;;;;4.82;1.88;;;13.20;99.90;;;;;;5015298;28;20226;-64
2022/11/09 04:23:37;;;;;;;2.30;1.50;;;13.30;99.90;;;;;;5035752;28;20204;-64
2022/11/09 04:26:04;;;;;;;7.25;1.95;;;13.30;99.90;;;;;;5030162;28;20222;-64
2022/11/09 04:28:31;;;;;;;2.53;1.45;;;13.30;99.90;;;;;;5014959;28;20206;-65
2022/11/09 04:31:00;;;;;;;3.75;1.60;;;13.30;99.90;;;;;;5028682;28;21003;-65
2022/11/09 04:33:28;;;;;;;4.53;1.88;;;13.30;99.90;;;;;;5026707;28;20231;-64
2022/11/09 04:35:55;;;;;;;2.08;1.50;;;13.30;99.90;;;;;;5014500;28;20216;-65
2022/11/09 04:38:23;;;;;;;5.47;1.75;;;13.40;99.90;;;;;;5027367;28;20799;-65
2022/11/09 04:40:50;;;;;;;3.90;1.58;;;13.30;99.90;;;;;;5037401;28;20259;-65
2022/11/09 04:43:16;;;;;;;7.45;1.67;;;13.40;99.90;;;;;;5002753;28;20216;-64
2022/11/09 04:45:44;;;;;;;7.10;2.33;;;13.40;99.90;;;;;;5042964;28;20216;-64
2022/11/09 04:48:12;;;;;;;6.93;1.90;;;13.30;99.90;;;;;;5016122;28;20284;-64
2022/11/09 04:50:38;;;;;;;6.10;1.95;;;13.30;99.90;;;;;;5028469;28;20274;-64
2022/11/09 04:53:11;;;;;;;4.63;1.50;;;13.30;99.90;;;;;;5015933;28;20247;-65
2022/11/09 04:55:40;;;;;;;4.25;1.88;;;13.20;99.90;;;;;;5040677;28;20284;-64
2022/11/09 04:58:07;;;;;;;2.53;1.45;;;13.20;99.90;;;;;;5004450;28;20224;-64
2022/11/09 05:00:34;;;;;;;5.00;1.90;;;13.10;99.90;;;;;;5021093;28;20209;-65
2022/11/09 05:03:02;;;;;;;3.35;1.55;;;13.10;99.90;;;;;;5029932;28;20213;-64
2022/11/09 05:05:29;;;;;;;2.63;1.48;;;13.20;99.90;;;;;;5001124;28;20231;-65
2022/11/09 05:07:56;;;;;;;3.50;1.65;;;13.20;99.90;;;;;;5007963;28;20231;-64
2022/11/09 05:10:23;;;;;;;3.72;1.70;;;13.20;99.90;;;;;;5008041;28;20224;-64
2022/11/09 05:12:56;;;;;;;2.63;1.58;;;13.20;99.90;;;;;;5005138;28;20228;-64
2022/11/09 05:15:23;;;;;;;2.08;1.70;;;13.20;99.90;;;;;;5014330;28;20709;-64
2022/11/09 05:17:50;;;;;;;2.95;1.45;;;13.20;99.90;;;;;;5023164;28;20204;-65
2022/11/09 05:20:17;;;;;;;3.38;1.80;;;13.20;99.90;;;;;;5024559;28;20213;-64
2022/11/09 05:25:28;;;;;;;3.28;1.70;;;13.20;99.90;;;;;;5025280;28;20660;-65
2022/11/09 05:27:57;;;;;;;2.35;1.83;;;13.20;99.90;;;;;;5006028;28;20684;-64
2022/11/09 05:30:24;;;;;;;5.30;1.83;;;13.30;99.90;;;;;;5018002;28;21303;-65
2022/11/09 05:32:50;;;;;;;4.22;1.60;;;13.30;99.90;;;;;;5028228;28;20228;-65
2022/11/09 05:35:17;;;;;;;3.42;1.80;;;13.30;99.90;;;;;;5022918;28;20247;-64
2022/11/09 05:37:47;;;;;;;5.22;1.88;;;13.30;99.90;;;;;;5015464;28;20232;-64
2022/11/09 05:40:15;;;;;;;3.20;1.73;;;13.30;99.90;;;;;;5011428;28;20229;-64
2022/11/09 05:42:42;;;;;;;6.65;2.10;;;13.30;99.90;;;;;;5030546;28;20698;-64
2022/11/09 05:45:12;;;;;;;3.58;1.70;;;13.30;99.90;;;;;;4994755;28;20528;-64
2022/11/09 05:47:40;;;;;;;3.17;1.60;;;13.30;99.90;;;;;;5033102;28;20231;-64
2022/11/09 05:50:09;;;;;;;3.90;1.92;;;13.30;99.90;;;;;;5020682;28;21205;-64
2022/11/09 05:52:36;;;;;;;6.20;1.70;;;13.30;99.90;;;;;;5021579;28;20225;-64
2022/11/09 05:55:04;;;;;;;2.92;1.77;;;13.30;99.90;;;;;;4992095;28;24008;-64
2022/11/09 05:57:31;;;;;;;3.60;1.63;;;13.30;99.90;;;;;;5020131;28;20231;-64
2022/11/09 05:59:57;;;;;;;6.78;2.00;;;13.20;99.90;;;;;;5009342;28;20247;-65
2022/11/09 06:02:26;;;;;;;3.70;1.70;;;13.20;99.90;;;;;;5024086;28;20267;-64
2022/11/09 06:04:52;;;;;;;4.60;1.85;;;13.20;99.90;;;;;;5017106;28;20716;-64
2022/11/09 06:07:19;;;;;;;3.33;1.67;;;13.30;99.90;;;;;;5029721;28;20397;-64
2022/11/09 06:09:46;;;;;;;2.33;1.98;;;13.20;99.90;;;;;;5024617;28;20224;-64
2022/11/09 06:12:13;;;;;;;2.85;1.90;;;13.20;99.90;;;;;;5023492;28;20249;-64
2022/11/09 06:14:40;;;;;;;3.92;1.65;;;13.20;99.90;;;;;;5024742;28;20315;-64
2022/11/09 06:17:07;;;;;;;4.75;1.70;;;13.20;99.90;;;;;;5011874;28;20287;-64
2022/11/09 06:19:35;;;;;;;2.85;1.70;;;13.20;99.90;;;;;;5037521;28;20225;-63
2022/11/09 06:22:02;;;;;;;4.05;1.73;;;13.20;99.90;;;;;;5019476;28;20620;-64
2022/11/09 06:24:29;;;;;;;3.78;1.95;;;13.10;99.90;;;;;;5040823;28;20202;-64
2022/11/09 06:26:56;;;;;;;4.55;1.67;;;13.10;99.90;;;;;;5049514;28;20205;-64
2022/11/09 06:29:23;;;;;;;6.72;1.80;;;13.20;99.90;;;;;;5047625;28;20201;-64
2022/11/09 06:31:50;;;;;;;2.10;1.50;;;13.10;99.90;;;;;;5012073;28;20236;-63
2022/11/09 06:34:17;;;;;;;5.53;2.20;;;13.10;99.90;;;;;;5048873;28;20216;-63
2022/11/09 06:36:45;;;;;;;3.08;1.90;;;13.10;99.90;;;;;;5036007;28;20224;-64
2022/11/09 06:39:12;;;;;;;6.40;2.33;;;13.10;99.90;;;;;;5023203;28;20230;-64
2022/11/09 06:41:39;;;;;;;5.03;1.98;;;13.10;99.90;;;;;;5051364;28;20205;-64
2022/11/09 06:44:06;;;;;;;6.50;2.20;;;13.10;99.90;;;;;;5051073;28;20204;-64
2022/11/09 06:46:33;;;;;;;3.10;1.80;;;13.10;99.90;;;;;;5024503;28;20213;-64
2022/11/09 06:49:00;;;;;;;4.03;1.80;;;13.10;99.90;;;;;;5044350;28;20673;-64
2022/11/09 06:51:27;;;;;;;3.75;2.03;;;13.10;99.90;;;;;;5037029;28;20207;-64
2022/11/09 06:53:55;;;;;;;4.22;2.05;;;13.00;99.90;;;;;;5024047;28;20212;-63
2022/11/09 06:56:22;;;;;;;5.45;2.30;;;13.10;99.90;;;;;;5031132;28;20804;-64
2022/11/09 06:58:49;;;;;;;7.03;2.10;;;13.10;99.90;;;;;;5034813;28;20861;-63
2022/11/09 07:01:18;;;;;;;6.57;1.70;;;13.00;99.90;;;;;;5017354;28;20587;-64
2022/11/09 07:06:12;;;;;;;4.03;1.92;;;13.00;99.90;;;;;;5056626;22;20258;-64
2022/11/09 07:08:40;;;;;;;2.95;1.73;;;13.00;99.90;;;;;;5053459;28;20204;-63
2022/11/09 07:11:11;;;;;;;4.10;1.77;;;13.00;99.90;;;;;;5043213;28;20556;-64
2022/11/09 07:13:38;;;;;;;5.47;1.77;;;12.90;99.90;;;;;;5057308;28;20210;-64
2022/11/09 07:16:06;;;;;;;3.25;1.60;;;12.90;99.90;;;;;;5053585;28;20203;-64
2022/11/09 07:18:33;;;;;;;5.20;1.60;;;12.90;99.90;;;;;;5026709;28;20251;-64
2022/11/09 07:21:00;;;;;;;4.65;2.05;;;12.90;99.90;;;;;;5066427;28;20204;-64
2022/11/09 07:23:27;;;;;;;3.25;1.40;;;12.90;99.90;;;;;;5056703;28;20201;-64
2022/11/09 07:25:54;;;;;;;4.00;1.73;;;12.80;99.90;;;;;;5038956;28;20208;-64
2022/11/09 07:28:22;;;;;;;6.05;1.83;;;12.80;99.90;;;;;;5030270;28;20225;-64
2022/11/09 07:30:51;;;;;;;3.20;1.42;;;12.80;99.90;;;;;;5038375;28;20217;-64
2022/11/09 07:33:21;;;;;;;4.97;1.88;;;12.80;99.90;;;;;;5012876;28;20225;-64
2022/11/09 07:35:48;;;;;;;2.28;1.77;;;12.80;99.90;;;;;;5033239;28;20279;-64
2022/11/09 07:38:15;;;;;;;4.30;1.70;;;12.80;99.90;;;;;;5037756;28;20204;-64
2022/11/09 07:40:43;;;;;;;7.68;2.10;;;12.80;99.90;;;;;;5018423;28;20209;-64
2022/11/09 07:43:11;;;;;;;10.63;1.80;;;12.80;99.90;;;;;;5035639;28;20208;-64
2022/11/09 07:45:40;;;;;;;4.45;1.80;;;12.80;99.90;;;;;;5043733;28;20208;-64
2022/11/09 07:48:09;;;;;;;3.80;1.70;;;12.80;99.90;;;;;;5045130;28;20208;-65
2022/11/09 07:50:38;;;;;;;3.67;1.38;;;12.80;99.90;;;;;;5014898;28;20217;-64
2022/11/09 07:53:06;;;;;;;6.88;1.73;;;12.80;99.90;;;;;;5039791;28;20209;-64
2022/11/09 07:55:34;;;;;;;4.85;1.58;;;12.90;99.90;;;;;;5032815;28;20216;-64
2022/11/09 07:58:03;;;;;;;4.95;1.80;;;12.80;99.90;;;;;;5031078;28;20305;-65
2022/11/09 08:00:32;;;;;;;3.55;1.80;;;12.90;99.90;;;;;;5022598;28;20231;-64
2022/11/09 08:03:00;;;;;;;3.80;1.50;;;12.90;99.90;;;;;;5047868;28;20194;-64
2022/11/09 08:05:28;;;;;;;6.60;1.83;;;12.90;99.90;;;;;;5016572;28;20224;-64
2022/11/09 08:07:56;;;;;;;5.15;1.73;;;12.90;99.90;;;;;;5045350;28;20226;-64
2022/11/09 08:10:23;;;;;;;6.15;1.45;;;13.00;99.90;;;;;;5038318;28;20231;-64
2022/11/09 08:12:54;;;;;;;5.60;1.77;;;13.00;99.90;;;;;;5029872;28;21013;-64
2022/11/09 08:15:21;;;;;;;5.80;1.35;;;13.00;99.90;;;;;;5039913;28;20212;-65
2022/11/09 08:17:48;;;;;;;4.22;1.52;;;13.00;99.90;;;;;;5044751;28;20193;-64
2022/11/09 08:20:16;;;;;;;3.45;1.38;;;13.00;99.90;;;;;;5018805;28;20264;-64
2022/11/09 08:22:44;;;;;;;6.10;1.95;;;13.10;99.90;;;;;;5043188;28;21076;-64
2022/11/09 08:25:12;;;;;;;4.82;1.85;;;13.10;99.90;;;;;;5034658;28;21003;-64
2022/11/09 08:27:40;;;;;;;6.32;1.42;;;13.10;99.90;;;;;;5024317;28;20208;-65
2022/11/09 08:30:10;;;;;;;6.82;1.83;;;13.10;99.90;;;;;;5039987;28;20205;-63
2022/11/09 08:32:37;;;;;;;9.98;1.80;;;13.10;99.90;;;;;;5032332;28;20228;-67
2022/11/09 08:35:05;;;;;;;3.80;1.75;;;13.20;99.90;;;;;;5027775;22;20236;-64
2022/11/09 08:37:35;;;;;;;5.55;1.45;;;13.20;99.90;;;;;;5048731;28;20675;-64
2022/11/09 08:40:02;;;;;;;7.03;1.60;;;13.20;99.90;;;;;;5040810;28;20232;-64
2022/11/09 08:42:28;;;;;;;4.43;1.42;;;13.20;99.90;;;;;;5039999;28;20196;-64
2022/11/09 08:44:55;;;;;;;7.85;1.80;;;13.20;99.90;;;;;;5033009;28;21166;-63
2022/11/09 08:47:22;;;;;;;5.95;1.70;;;13.20;99.90;;;;;;5029177;28;20226;-64
2022/11/09 08:49:49;;;;;;;5.10;1.65;;;13.20;99.90;;;;;;5019399;28;21078;-64
2022/11/09 08:52:17;;;;;;;5.85;1.50;;;13.30;99.90;;;;;;4997990;28;20229;-64
2022/11/09 08:54:45;;;;;;;2.42;1.60;;;13.30;99.90;;;;;;5025794;22;20323;-63
2022/11/09 08:57:13;;;;;;;7.93;2.08;;;13.30;99.90;;;;;;5039603;28;20669;-63
2022/11/09 08:59:39;;;;;;;4.40;1.40;;;13.30;99.90;;;;;;5030572;28;20216;-64
2022/11/09 09:02:06;;;;;;;6.25;1.65;;;13.30;99.90;;;;;;5046580;22;20926;-64
2022/11/09 09:04:33;;;;;;;5.53;1.63;;;13.40;99.90;;;;;;5034922;28;20569;-65
2022/11/09 09:07:00;;;;;;;5.15;1.80;;;13.40;99.90;;;;;;5022581;28;20691;-65
2022/11/09 09:09:27;;;;;;;6.05;1.85;;;13.40;99.90;;;;;;5033760;28;20228;-65
2022/11/09 09:11:55;;;;;;;3.47;1.70;;;13.40;99.90;;;;;;5021279;28;20205;-64
2022/11/09 09:14:22;;;;;;;7.80;2.17;;;13.50;99.90;;;;;;5016761;28;20209;-64
2022/11/09 09:16:48;;;;;;;7.35;2.15;;;13.50;99.90;;;;;;5015978;28;20219;-64
2022/11/09 09:19:15;;;;;;;5.78;1.55;;;13.50;99.90;;;;;;5017672;28;20236;-64
2022/11/09 09:21:42;;;;;;;10.23;2.33;;;13.40;99.90;;;;;;5031042;28;20212;-64
2022/11/09 09:24:09;;;;;;;5.25;1.88;;;13.50;99.90;;;;;;4996521;28;20224;-64
2022/11/09 09:26:36;;;;;;;4.30;1.48;;;13.50;99.90;;;;;;5011542;28;20275;-63
2022/11/09 09:29:04;;;;;;;9.57;1.95;;;13.50;99.90;;;;;;5025936;28;20225;-64
2022/11/09 09:31:31;;;;;;;5.72;1.60;;;13.40;99.90;;;;;;5002136;28;20225;-65
2022/11/09 09:33:57;;;;;;;6.57;1.80;;;13.50;99.90;;;;;;5028359;28;20589;-64
2022/11/09 09:36:24;;;;;;;8.50;1.60;;;13.50;99.90;;;;;;5029884;28;20199;-64
2022/11/09 09:38:52;;;;;;;7.28;1.70;;;13.50;99.90;;;;;;4992310;28;20599;-64
2022/11/09 09:41:23;;;;;;;4.10;1.85;;;13.50;99.90;;;;;;5029007;28;20210;-64
2022/11/09 09:43:54;;;;;;;7.07;1.98;;;13.50;99.90;;;;;;5006518;28;20946;-64
2022/11/09 09:46:26;;;;;;;4.18;2.42;;;13.60;99.90;;;;;;5018685;28;20205;-64
2022/11/09 09:48:58;;;;;;;4.45;2.45;;;13.60;99.90;;;;;;5015471;28;20845;-65
2022/11/09 09:51:30;;;;;;;8.23;3.00;;;13.60;99.90;;;;;;5031242;28;20639;-64
2022/11/09 09:54:08;;;;;;;10.07;3.78;;;13.70;99.90;;;;;;4999323;28;20228;-64
2022/11/09 09:56:38;;;;;;;6.80;2.70;;;13.60;99.90;;;;;;5025126;28;20198;-64
2022/11/09 09:59:10;;;;;;;9.85;2.67;;;13.60;99.90;;;;;;5026671;28;20205;-64
2022/11/09 10:01:40;;;;;;;10.90;3.20;;;13.70;99.90;;;;;;5000894;28;20205;-64
2022/11/09 10:04:16;;;;;;;12.45;2.63;;;13.70;99.90;;;;;;5017527;28;20228;-64
2022/11/09 10:06:58;;;;;;;5.32;2.30;;;13.70;99.90;;;;;;5022804;28;20778;-64
2022/11/09 10:09:40;;;;;;;6.88;2.20;;;13.90;99.90;;;;;;5025300;28;20248;-64
2022/11/09 10:12:15;;;;;;;8.55;2.70;;;13.60;99.90;;;;;;5018476;28;20832;-64
2022/11/09 10:15:04;;;;;;;8.00;2.35;;;13.70;99.90;;;;;;5012689;28;20205;-64
2022/11/09 10:17:45;;;;;;;7.63;2.67;;;13.60;99.90;;;;;;5030456;28;20686;-64
2022/11/09 10:20:29;;;;;;;7.32;2.30;;;13.60;99.90;;;;;;5016322;28;20229;-66
2022/11/09 10:23:13;;;;;;;4.95;2.25;;;13.60;99.90;;;;;;5017896;28;20717;-65
2022/11/09 10:25:44;;;;;;;11.98;2.90;;;13.60;99.90;;;;;;4999321;28;21020;-64
2022/11/09 10:28:14;;;;;;;6.75;2.50;;;13.60;99.90;;;;;;5022559;28;20797;-63
2022/11/09 10:30:41;;;;;;;7.18;1.75;;;13.70;99.90;;;;;;5005015;28;20240;-62
2022/11/09 10:33:19;;;;;;;4.57;2.05;;;13.70;99.90;;;;;;5023533;28;20231;-62
2022/11/09 10:35:52;;;;;;;5.35;2.10;;;13.70;99.90;;;;;;5019775;28;20223;-62
2022/11/09 10:38:23;;;;;;;4.95;1.88;;;13.70;99.90;;;;;;5027227;28;20202;-62
2022/11/09 10:40:54;;;;;;;9.23;2.63;;;13.70;99.90;;;;;;5006442;28;21716;-62
2022/11/09 10:43:21;;;;;;;9.18;2.08;;;13.70;99.90;;;;;;5017564;28;20836;-64
2022/11/09 10:45:58;;;;;;;13.98;2.92;;;13.10;99.90;;;;;;5024050;28;20229;-63
2022/11/09 10:48:33;;;;;;;7.55;2.33;;;15.40;99.90;;;;;;5003625;28;20229;-64
2022/11/09 10:51:00;;;;;;;6.05;1.90;;;13.80;99.90;;;;;;5031381;28;20220;-64
2022/11/09 10:53:28;;;;;;;5.10;1.75;;;13.80;99.90;;;;;;5031908;28;20193;-64
2022/11/09 10:55:57;;;;;;;5.55;2.40;;;13.90;99.90;;;;;;5020923;28;20746;-64
2022/11/09 10:58:31;;;;;;;5.88;1.63;;;13.80;99.90;;;;;;5001642;28;20206;-64
2022/11/09 11:01:04;;;;;;;5.82;2.25;;;13.80;99.90;;;;;;5015464;28;20267;-64
2022/11/09 11:03:35;;;;;;;12.60;2.40;;;13.80;99.90;;;;;;5020650;28;21107;-64
2022/11/09 11:06:04;;;;;;;10.32;1.88;;;13.70;99.90;;;;;;5019868;28;20205;-65
2022/11/09 11:08:34;;;;;;;4.90;1.48;;;13.70;99.90;;;;;;5029964;28;20205;-65
2022/11/09 11:11:15;;;;;;;3.10;1.90;;;13.80;99.90;;;;;;5032418;28;20197;-64
2022/11/09 11:13:42;;;;;;;5.85;1.85;;;13.80;99.90;;;;;;5000659;28;20586;-64
2022/11/09 11:16:23;;;;;;;6.47;2.40;;;13.80;99.90;;;;;;5007767;28;20201;-64
2022/11/09 11:18:52;;;;;;;10.93;2.63;;;13.80;99.90;;;;;;5008339;28;21038;-64
2022/11/09 11:21:20;;;;;;;7.03;2.38;;;13.90;99.90;;;;;;5013026;28;20238;-65
2022/11/09 11:24:13;;;;;;;5.88;1.95;;;14.00;99.90;;;;;;5016421;28;20591;-65
2022/11/09 11:26:50;;;;;;;5.10;2.78;;;14.00;99.90;;;;;;5020531;28;20211;-65
2022/11/09 11:29:32;;;;;;;3.97;1.88;;;14.00;99.90;;;;;;4998337;28;20236;-64
2022/11/09 11:31:59;;;;;;;6.45;2.50;;;14.10;99.90;;;;;;5027261;28;20234;-64
2022/11/09 11:34:28;;;;;;;3.40;1.73;;;14.10;99.90;;;;;;5006883;28;20217;-65
2022/11/09 11:37:07;;;;;;;9.65;1.98;;;14.20;99.90;;;;;;5017535;28;20583;-65
2022/11/09 11:39:56;;;;;;;3.42;1.30;;;14.20;99.90;;;;;;5029608;28;20205;-62
2022/11/09 11:42:48;;;;;;;6.22;1.98;;;14.30;99.90;;;;;;5023877;28;20199;-63
2022/11/09 11:45:22;;;;;;;8.93;2.17;;;14.20;99.90;;;;;;5032545;28;20201;-62
2022/11/09 11:48:03;;;;;;;7.95;1.60;;;14.30;99.90;;;;;;5009406;28;20232;-63
2022/11/09 11:50:39;;;;;;;7.07;1.75;;;14.30;99.90;;;;;;5004876;28;20208;-63
2022/11/09 11:53:21;;;;;;;10.52;2.10;;;14.40;99.90;;;;;;5031372;28;20194;-62
2022/11/09 11:56:20;;;;;;;6.63;1.80;;;14.40;99.90;;;;;;5010335;28;20209;-63
2022/11/09 11:59:29;;;;;;;9.45;1.70;;;14.50;99.90;;;;;;4996591;28;20213;-63
2022/11/09 12:02:15;;;;;;;6.35;1.85;;;14.50;99.90;;;;;;4965316;28;20765;-63
2022/11/09 12:04:59;;;;;;;4.93;1.75;;;14.40;99.90;;;;;;5011524;28;20217;-63
2022/11/09 12:07:38;;;;;;;6.18;1.85;;;14.50;99.90;;;;;;5008581;28;20213;-64
2022/11/09 12:10:23;;;;;;;9.60;2.00;;;14.50;99.90;;;;;;5010077;28;20595;-63
2022/11/09 12:12:59;;;;;;;5.00;1.55;;;14.50;99.90;;;;;;5025409;28;20363;-63
2022/11/09 12:15:36;;;;;;;5.75;1.83;;;14.50;99.90;;;;;;4991125;28;20232;-65
2022/11/09 12:18:14;;;;;;;4.32;1.30;;;14.50;99.90;;;;;;5016900;28;20229;-64
2022/11/09 12:20:48;;;;;;;6.57;1.85;;;14.50;99.90;;;;;;5009169;28;20241;-64
2022/11/09 12:23:38;;;;;;;5.25;1.70;;;14.50;99.90;;;;;;5021414;28;20208;-64
2022/11/09 12:26:17;;;;;;;9.32;1.50;;;14.50;99.90;;;;;;5029058;28;24929;-64
2022/11/09 12:29:11;;;;;;;5.80;1.55;;;14.50;99.90;;;;;;5022127;28;20221;-65
2022/11/09 12:31:49;;;;;;;2.67;1.23;;;14.50;99.90;;;;;;4982843;28;20308;-65
2022/11/09 12:34:21;;;;;;;3.75;1.55;;;14.50;99.90;;;;;;5012736;28;20221;-64
2022/11/09 12:36:54;;;;;;;3.22;1.60;;;14.40;99.90;;;;;;5015210;28;20224;-64
2022/11/09 12:39:27;;;;;;;6.05;1.85;;;14.40;99.90;;;;;;5020356;28;20197;-64
2022/11/09 12:41:59;;;;;;;3.60;1.80;;;14.40;99.90;;;;;;5018459;28;20228;-64
2022/11/09 12:44:30;;;;;;;2.97;1.40;;;14.40;99.90;;;;;;5028027;28;20235;-65
2022/11/09 12:47:02;;;;;;;6.50;1.67;;;14.40;99.90;;;;;;4994074;28;20205;-64
2022/11/09 12:49:36;;;;;;;2.90;1.35;;;14.40;99.90;;;;;;5010630;28;20233;-64
2022/11/09 12:52:04;;;;;;;6.47;2.00;;;14.30;99.90;;;;;;5010389;28;20260;-65
2022/11/09 12:54:34;;;;;;;2.45;1.48;;;14.40;99.90;;;;;;5019614;28;20221;-64
2022/11/09 12:57:05;;;;;;;5.50;1.70;;;14.40;99.90;;;;;;5029212;28;21021;-65
2022/11/09 12:59:37;;;;;;;5.93;1.27;;;14.40;99.90;;;;;;5031610;28;20228;-64
2022/11/09 13:02:05;;;;;;;4.63;1.52;;;14.50;99.90;;;;;;5000453;28;20845;-64
2022/11/09 13:04:33;;;;;;;3.05;1.33;;;14.50;99.90;;;;;;5019150;28;20212;-64